EmailTwitter


Surface observations / United Kingdom / EGLL (03772)

Regions: Quebec | Canada | USA | Europe | France | UK | Elsewhere
Station
Display
Info & Location for EGLL (03772) | Help decoding METAR

Weather Conditions observed on 2017/06/24 at 11:50 UTC at LONDON/HEATHROW, UK (EGLL)

Sky conditions: partly cloudy.

Temperature: 22.0 Celsius.

Dewpoint: 15.0 Celsius.

Relative Humidity: 64%

Humidex: 26.

Winds: Southwest at 26 km/h or 14 knots.

Mean Sea level Pressure: 101.40 kilopascals.

Horizontal visibility: 6.21 statute miles or 9.94 kilometers.

Height of the Ceiling: 701 metres ( 2300 feet ).

Coded METAR:

EGLL 241150Z AUTO 24014KT 9999 BKN023 22/15 Q1014 NOSIG=